Chicago, Illinois
Current Conditions -  °F | °C
As of 7:53 AM on Saturday 20 Dec 2014 (Local Time) from KMDW Reporting Station
Overcast Overcast  
Wind Chill: 27°   Ceiling: 2400
Heat Index: 32°   Visibility: 9mi
Dew Point: 26°   Wind: 5mph
Humidity: 79%   Direction: 200°SSW
Pressure: 30.28"   Gusts: NA
Location:  41.88°N, 87.63°W
Report Text: KMDW 201353Z 20004KT 9SM BKN024 OVC070 00/M03 A3028 RMK AO2 SLP266 T00001033 $
Loading
Personal Weather Stations






























Interactive Weather Map New forecast layout! Learn more

10-Day Weather Forecast

Advertisements
Track Severe Weather on mobile